Time;durP1;ratioP1;P1;durP2;ratioP2;P2;SDS_P1;SDS_P2;PMS_P1;PMS_P2;Temp;Humidity;BMP_temperature;BMP_pressure;BME280_temperature;BME280_humidity;BME280_pressure;Samples;Min_cycle;Max_cycle;Signal;HPM_P1;HPM_P2
2021/08/26 00:07:06;;;;;;;0.00;0.00;;;;;;;;;;10278425;28;20058;-73
2021/08/26 00:12:11;;;;;;;0.00;0.00;;;;;;;;;;10278650;28;20504;-71
2021/08/26 00:17:15;;;;;;;0.10;0.10;;;;;;;;;;10269487;28;21112;-71
2021/08/26 00:22:19;;;;;;;0.00;0.00;;;;;;;;;;10288271;28;20039;-72
2021/08/26 00:27:24;;;;;;;0.00;0.00;;;;;;;;;;10273047;28;20050;-72
2021/08/26 00:32:27;;;;;;;0.00;0.00;;;;;;;;;;10283300;28;20066;-72
2021/08/26 00:37:29;;;;;;;0.00;0.00;;;;;;;;;;10253360;28;20119;-72
2021/08/26 00:42:34;;;;;;;0.00;0.00;;;;;;;;;;10268238;28;20068;-72
2021/08/26 00:47:38;;;;;;;0.00;0.00;;;;;;;;;;10274078;28;20062;-72
2021/08/26 00:52:40;;;;;;;0.00;0.00;;;;;;;;;;10287746;28;20416;-72
2021/08/26 00:57:44;;;;;;;0.00;0.00;;;;;;;;;;10282577;28;20309;-72
2021/08/26 01:02:52;;;;;;;0.00;0.00;;;;;;;;;;10279131;28;20046;-72
2021/08/26 01:07:59;;;;;;;0.00;0.00;;;;;;;;;;10276389;28;20584;-72
2021/08/26 01:13:03;;;;;;;0.00;0.00;;;;;;;;;;10287310;28;20477;-72
2021/08/26 01:18:06;;;;;;;0.00;0.00;;;;;;;;;;10295788;28;20067;-71
2021/08/26 01:23:09;;;;;;;0.00;0.00;;;;;;;;;;10293106;28;20043;-72
2021/08/26 01:28:13;;;;;;;0.03;0.03;;;;;;;;;;10291883;28;20045;-72
2021/08/26 01:33:16;;;;;;;0.00;0.00;;;;;;;;;;10291345;28;20050;-72
2021/08/26 01:38:22;;;;;;;0.00;0.00;;;;;;;;;;10270206;28;20145;-71
2021/08/26 01:43:28;;;;;;;0.00;0.00;;;;;;;;;;10291092;28;20499;-71
2021/08/26 01:48:31;;;;;;;0.00;0.00;;;;;;;;;;10296136;28;20047;-72
2021/08/26 01:53:34;;;;;;;0.00;0.00;;;;;;;;;;10295739;28;20467;-71
2021/08/26 01:58:38;;;;;;;0.00;0.00;;;;;;;;;;10272874;28;20428;-71
2021/08/26 02:03:41;;;;;;;0.00;0.00;;;;;;;;;;10275335;28;20047;-71
2021/08/26 02:08:43;;;;;;;0.00;0.00;;;;;;;;;;10299313;28;20420;-71
2021/08/26 02:13:47;;;;;;;0.00;0.00;;;;;;;;;;10275838;28;20046;-71
2021/08/26 02:18:50;;;;;;;0.00;0.00;;;;;;;;;;10277029;28;20051;-71
2021/08/26 02:23:54;;;;;;;0.00;0.00;;;;;;;;;;10305171;28;20051;-71
2021/08/26 02:28:58;;;;;;;0.00;0.00;;;;;;;;;;10282771;28;20043;-71
2021/08/26 02:34:01;;;;;;;0.00;0.00;;;;;;;;;;10291194;28;20050;-71
2021/08/26 02:39:04;;;;;;;0.00;0.00;;;;;;;;;;10276276;28;20511;-71
2021/08/26 02:44:08;;;;;;;0.00;0.00;;;;;;;;;;10277749;28;20301;-71
2021/08/26 02:49:11;;;;;;;0.00;0.00;;;;;;;;;;10278556;28;20043;-72
2021/08/26 02:54:13;;;;;;;0.00;0.00;;;;;;;;;;10284057;28;20194;-71
2021/08/26 02:59:17;;;;;;;0.00;0.00;;;;;;;;;;10266309;28;20051;-72
2021/08/26 03:04:20;;;;;;;0.00;0.00;;;;;;;;;;10281485;28;20051;-72
2021/08/26 03:09:23;;;;;;;0.00;0.00;;;;;;;;;;10271847;28;20049;-72
2021/08/26 03:14:27;;;;;;;0.00;0.00;;;;;;;;;;10287874;28;20038;-71
2021/08/26 03:19:30;;;;;;;0.00;0.00;;;;;;;;;;10286455;28;20066;-71
2021/08/26 03:24:32;;;;;;;0.00;0.00;;;;;;;;;;10281517;28;20050;-71
2021/08/26 03:29:36;;;;;;;0.00;0.00;;;;;;;;;;10285234;28;20424;-72
2021/08/26 03:34:39;;;;;;;0.00;0.00;;;;;;;;;;10285928;28;20046;-72
2021/08/26 03:39:42;;;;;;;0.00;0.00;;;;;;;;;;10292492;28;20042;-72
2021/08/26 03:44:46;;;;;;;0.00;0.00;;;;;;;;;;10285206;28;20386;-71
2021/08/26 03:49:49;;;;;;;0.00;0.00;;;;;;;;;;10282031;28;20045;-73
2021/08/26 03:54:52;;;;;;;0.00;0.00;;;;;;;;;;10286119;28;20088;-73
2021/08/26 03:59:56;;;;;;;0.00;0.00;;;;;;;;;;10288261;28;20419;-73
2021/08/26 04:04:58;;;;;;;0.00;0.00;;;;;;;;;;10270482;28;20046;-73
2021/08/26 04:10:01;;;;;;;0.00;0.00;;;;;;;;;;10275186;28;20420;-73
2021/08/26 04:15:08;;;;;;;0.10;0.10;;;;;;;;;;10282342;28;20050;-73
2021/08/26 04:20:11;;;;;;;0.00;0.00;;;;;;;;;;10272901;28;20058;-72
2021/08/26 04:25:14;;;;;;;0.00;0.00;;;;;;;;;;10267603;28;20173;-72
2021/08/26 04:30:21;;;;;;;0.00;0.00;;;;;;;;;;10289112;28;20093;-72
2021/08/26 04:35:23;;;;;;;0.00;0.00;;;;;;;;;;10281245;28;20042;-72
2021/08/26 04:40:26;;;;;;;0.00;0.00;;;;;;;;;;10272477;28;20058;-72
2021/08/26 04:45:32;;;;;;;0.00;0.00;;;;;;;;;;10280526;28;20059;-72
2021/08/26 04:50:34;;;;;;;0.00;0.00;;;;;;;;;;10276520;28;20157;-72
2021/08/26 04:55:37;;;;;;;0.00;0.00;;;;;;;;;;10268710;28;20057;-72
2021/08/26 05:00:42;;;;;;;0.00;0.00;;;;;;;;;;10289287;28;20135;-72
2021/08/26 05:05:46;;;;;;;0.00;0.00;;;;;;;;;;10292931;28;20054;-72
2021/08/26 05:10:48;;;;;;;0.00;0.00;;;;;;;;;;10289233;28;20127;-72
2021/08/26 05:15:52;;;;;;;0.00;0.00;;;;;;;;;;10279073;28;20057;-72
2021/08/26 05:20:57;;;;;;;0.00;0.00;;;;;;;;;;10301426;28;20080;-72
2021/08/26 05:26:00;;;;;;;0.00;0.00;;;;;;;;;;10282666;28;20061;-72
2021/08/26 05:31:06;;;;;;;0.00;0.00;;;;;;;;;;10294974;28;20061;-72
2021/08/26 05:36:08;;;;;;;0.00;0.00;;;;;;;;;;10301354;28;20463;-72
2021/08/26 05:41:11;;;;;;;0.00;0.00;;;;;;;;;;10280256;28;20405;-72
2021/08/26 05:46:15;;;;;;;0.00;0.00;;;;;;;;;;10300866;28;20477;-72
2021/08/26 05:51:19;;;;;;;0.00;0.00;;;;;;;;;;10299062;28;20074;-72
2021/08/26 05:56:22;;;;;;;0.00;0.00;;;;;;;;;;10306694;28;20508;-72
2021/08/26 06:01:28;;;;;;;0.00;0.00;;;;;;;;;;10294018;28;20417;-72
2021/08/26 06:06:33;;;;;;;0.00;0.00;;;;;;;;;;10301022;28;20047;-72
2021/08/26 06:11:36;;;;;;;0.00;0.00;;;;;;;;;;10315914;28;20045;-72
2021/08/26 06:16:40;;;;;;;0.00;0.00;;;;;;;;;;10300891;28;20054;-72
2021/08/26 06:21:43;;;;;;;0.00;0.00;;;;;;;;;;10295289;28;20051;-72
2021/08/26 06:26:46;;;;;;;0.00;0.00;;;;;;;;;;10304462;28;20047;-72
2021/08/26 06:31:50;;;;;;;0.10;0.10;;;;;;;;;;10301670;28;20080;-72
2021/08/26 06:36:52;;;;;;;0.00;0.00;;;;;;;;;;10288193;28;20390;-72
2021/08/26 06:41:56;;;;;;;0.00;0.00;;;;;;;;;;10294138;28;20054;-72
2021/08/26 06:47:02;;;;;;;0.00;0.00;;;;;;;;;;10303658;28;20697;-72
2021/08/26 06:52:05;;;;;;;0.00;0.00;;;;;;;;;;10311742;28;20131;-72
2021/08/26 06:57:07;;;;;;;0.00;0.00;;;;;;;;;;10289985;28;20110;-73
2021/08/26 07:02:13;;;;;;;0.00;0.00;;;;;;;;;;10296118;28;20523;-73
2021/08/26 07:07:17;;;;;;;0.00;0.00;;;;;;;;;;10295228;28;20547;-73
2021/08/26 07:12:20;;;;;;;0.00;0.00;;;;;;;;;;10297815;28;20130;-73
2021/08/26 07:17:23;;;;;;;0.00;0.00;;;;;;;;;;10295451;28;20050;-73
2021/08/26 07:22:27;;;;;;;0.03;0.03;;;;;;;;;;10298264;28;20496;-73
2021/08/26 07:27:30;;;;;;;0.08;0.08;;;;;;;;;;10296026;28;20041;-73
2021/08/26 07:32:32;;;;;;;0.00;0.00;;;;;;;;;;10299501;28;20042;-73
2021/08/26 07:37:36;;;;;;;0.00;0.00;;;;;;;;;;10302238;28;20126;-73
2021/08/26 07:42:39;;;;;;;0.00;0.00;;;;;;;;;;10302605;28;20050;-73
2021/08/26 07:47:44;;;;;;;0.00;0.00;;;;;;;;;;10295734;28;20125;-73
2021/08/26 07:52:48;;;;;;;0.10;0.10;;;;;;;;;;10300200;28;20142;-73
2021/08/26 07:57:53;;;;;;;0.00;0.00;;;;;;;;;;10295232;28;20130;-73
2021/08/26 08:02:56;;;;;;;0.00;0.00;;;;;;;;;;10303537;28;20050;-73
2021/08/26 08:08:24;;;;;;;0.08;0.08;;;;;;;;;;10307031;28;20133;-73
2021/08/26 08:13:29;;;;;;;0.00;0.00;;;;;;;;;;10291484;28;20056;-73
2021/08/26 08:18:32;;;;;;;0.00;0.00;;;;;;;;;;10294627;28;20057;-73
2021/08/26 08:23:35;;;;;;;0.00;0.00;;;;;;;;;;10313835;28;20069;-74
2021/08/26 08:28:40;;;;;;;0.00;0.00;;;;;;;;;;10315858;28;20047;-73
2021/08/26 08:33:44;;;;;;;0.00;0.00;;;;;;;;;;10284024;28;20043;-73
2021/08/26 08:38:46;;;;;;;0.00;0.00;;;;;;;;;;10293583;28;20091;-74
2021/08/26 08:43:51;;;;;;;0.00;0.00;;;;;;;;;;10290468;28;20481;-74
2021/08/26 08:48:54;;;;;;;0.00;0.00;;;;;;;;;;10297020;28;20053;-74
2021/08/26 08:53:57;;;;;;;0.00;0.00;;;;;;;;;;10298713;28;20477;-74
2021/08/26 08:59:03;;;;;;;0.10;0.10;;;;;;;;;;10294287;28;20050;-74
2021/08/26 09:04:08;;;;;;;0.00;0.00;;;;;;;;;;10289554;28;20043;-73
2021/08/26 09:09:12;;;;;;;0.00;0.00;;;;;;;;;;10287436;28;20054;-74
2021/08/26 09:14:16;;;;;;;0.00;0.00;;;;;;;;;;10301482;28;20042;-73
2021/08/26 09:19:20;;;;;;;0.00;0.00;;;;;;;;;;10286958;28;20057;-73
2021/08/26 09:24:23;;;;;;;0.00;0.00;;;;;;;;;;10306796;28;20046;-73
2021/08/26 09:29:27;;;;;;;0.08;0.08;;;;;;;;;;10284005;28;20043;-73
2021/08/26 09:34:30;;;;;;;0.00;0.00;;;;;;;;;;10277673;28;20218;-74
2021/08/26 09:39:33;;;;;;;0.00;0.00;;;;;;;;;;10287127;28;20054;-74
2021/08/26 09:44:37;;;;;;;0.00;0.00;;;;;;;;;;10285349;28;20034;-74
2021/08/26 09:49:41;;;;;;;0.00;0.00;;;;;;;;;;10295740;28;20053;-74
2021/08/26 09:54:45;;;;;;;0.00;0.00;;;;;;;;;;10299719;28;20058;-74
2021/08/26 09:59:50;;;;;;;0.00;0.00;;;;;;;;;;10275852;28;20051;-74
2021/08/26 10:04:58;;;;;;;0.00;0.00;;;;;;;;;;10279803;28;20043;-74
2021/08/26 10:10:00;;;;;;;0.00;0.00;;;;;;;;;;10287117;28;20049;-75
2021/08/26 10:15:05;;;;;;;0.00;0.00;;;;;;;;;;10283834;28;20042;-75
2021/08/26 10:20:09;;;;;;;0.00;0.00;;;;;;;;;;10285453;28;20054;-75
2021/08/26 10:25:12;;;;;;;0.00;0.00;;;;;;;;;;10281750;28;20035;-75
2021/08/26 10:30:28;;;;;;;0.00;0.00;;;;;;;;;;10285548;28;20045;-75
2021/08/26 10:35:31;;;;;;;0.00;0.00;;;;;;;;;;10273150;28;20046;-75
2021/08/26 10:40:35;;;;;;;0.00;0.00;;;;;;;;;;10290300;28;20053;-75
2021/08/26 10:45:49;;;;;;;0.00;0.00;;;;;;;;;;10288148;28;20050;-75
2021/08/26 10:51:03;;;;;;;0.00;0.00;;;;;;;;;;10284457;28;20069;-75
2021/08/26 10:56:19;;;;;;;0.00;0.00;;;;;;;;;;10290806;28;20058;-75
2021/08/26 11:01:38;;;;;;;0.00;0.00;;;;;;;;;;10285878;28;20050;-75
2021/08/26 11:06:42;;;;;;;0.00;0.00;;;;;;;;;;10297509;28;20069;-75
2021/08/26 11:11:47;;;;;;;0.00;0.00;;;;;;;;;;10267891;28;20058;-74
2021/08/26 11:16:56;;;;;;;0.00;0.00;;;;;;;;;;10291654;28;20078;-74
2021/08/26 11:22:00;;;;;;;0.00;0.00;;;;;;;;;;10279919;28;20054;-73
2021/08/26 11:27:04;;;;;;;0.00;0.00;;;;;;;;;;10293098;28;20055;-72
2021/08/26 11:32:09;;;;;;;0.00;0.00;;;;;;;;;;10271361;28;20053;-72
2021/08/26 11:37:13;;;;;;;0.00;0.00;;;;;;;;;;10279077;28;20050;-73
2021/08/26 11:42:23;;;;;;;0.00;0.00;;;;;;;;;;10283987;28;20051;-73
2021/08/26 11:47:30;;;;;;;0.00;0.00;;;;;;;;;;10280341;28;20053;-73
2021/08/26 11:52:33;;;;;;;0.00;0.00;;;;;;;;;;10287832;28;20412;-73
2021/08/26 11:57:36;;;;;;;0.00;0.00;;;;;;;;;;10296483;28;20549;-72
2021/08/26 12:02:41;;;;;;;0.00;0.00;;;;;;;;;;10279006;28;20491;-72
2021/08/26 12:07:45;;;;;;;0.00;0.00;;;;;;;;;;10288576;28;20050;-73
2021/08/26 12:13:05;;;;;;;0.00;0.00;;;;;;;;;;10282717;28;20413;-73
2021/08/26 12:18:11;;;;;;;0.00;0.00;;;;;;;;;;10288244;28;20158;-73
2021/08/26 12:23:15;;;;;;;0.00;0.00;;;;;;;;;;10278549;28;20066;-72
2021/08/26 12:28:17;;;;;;;0.00;0.00;;;;;;;;;;10285829;28;20047;-72
2021/08/26 12:33:22;;;;;;;0.00;0.00;;;;;;;;;;10284435;28;20043;-73
2021/08/26 12:38:35;;;;;;;0.00;0.00;;;;;;;;;;10264537;28;20745;-73
2021/08/26 12:43:43;;;;;;;0.00;0.00;;;;;;;;;;10264612;28;20072;-73
2021/08/26 12:48:47;;;;;;;0.00;0.00;;;;;;;;;;10284534;28;20369;-73
2021/08/26 12:54:10;;;;;;;0.00;0.00;;;;;;;;;;10294106;28;20058;-73
2021/08/26 12:59:13;;;;;;;0.00;0.00;;;;;;;;;;10295336;28;20465;-73
2021/08/26 13:04:22;;;;;;;0.00;0.00;;;;;;;;;;10294819;28;20047;-72
2021/08/26 13:09:33;;;;;;;0.00;0.00;;;;;;;;;;10292159;28;20428;-73
2021/08/26 13:14:38;;;;;;;0.00;0.00;;;;;;;;;;10297895;28;20485;-73
2021/08/26 13:19:42;;;;;;;0.00;0.00;;;;;;;;;;10292649;28;20050;-72
2021/08/26 13:24:45;;;;;;;0.00;0.00;;;;;;;;;;10297526;28;20046;-72
2021/08/26 13:29:48;;;;;;;0.00;0.00;;;;;;;;;;10293699;28;20124;-72
2021/08/26 13:34:52;;;;;;;0.00;0.00;;;;;;;;;;10306033;28;20049;-72
2021/08/26 13:39:55;;;;;;;0.00;0.00;;;;;;;;;;10294664;28;20726;-72
2021/08/26 13:44:58;;;;;;;0.00;0.00;;;;;;;;;;10280125;28;20143;-73
2021/08/26 13:50:02;;;;;;;0.00;0.00;;;;;;;;;;10294116;28;20039;-73
2021/08/26 13:55:06;;;;;;;0.00;0.00;;;;;;;;;;10285244;28;20062;-72
2021/08/26 14:00:09;;;;;;;0.00;0.00;;;;;;;;;;10287200;28;20052;-72
2021/08/26 14:05:15;;;;;;;0.00;0.00;;;;;;;;;;10282218;28;20057;-72
2021/08/26 14:10:18;;;;;;;0.00;0.00;;;;;;;;;;10296282;28;20398;-72
2021/08/26 14:15:21;;;;;;;0.00;0.00;;;;;;;;;;10282108;28;20042;-73
2021/08/26 14:20:25;;;;;;;0.00;0.00;;;;;;;;;;10280034;28;20055;-72
2021/08/26 14:25:28;;;;;;;0.00;0.00;;;;;;;;;;10277152;28;20043;-72
2021/08/26 14:30:30;;;;;;;0.00;0.00;;;;;;;;;;10282897;28;20051;-72
2021/08/26 14:35:34;;;;;;;0.00;0.00;;;;;;;;;;10292174;28;20042;-72
2021/08/26 14:40:38;;;;;;;0.00;0.00;;;;;;;;;;10294248;28;20059;-72
2021/08/26 14:45:41;;;;;;;0.00;0.00;;;;;;;;;;10295160;28;20140;-73
2021/08/26 14:50:45;;;;;;;0.00;0.00;;;;;;;;;;10291486;28;20813;-73
2021/08/26 14:55:48;;;;;;;0.00;0.00;;;;;;;;;;10288958;28;20389;-73
2021/08/26 15:00:50;;;;;;;0.00;0.00;;;;;;;;;;10279490;28;20416;-73
2021/08/26 15:05:55;;;;;;;0.00;0.00;;;;;;;;;;10274521;28;20078;-73
2021/08/26 15:10:59;;;;;;;0.00;0.00;;;;;;;;;;10280152;28;20055;-75
2021/08/26 15:16:01;;;;;;;0.00;0.00;;;;;;;;;;10286312;28;20039;-72
2021/08/26 15:21:05;;;;;;;0.00;0.00;;;;;;;;;;10236962;28;20057;-73
2021/08/26 15:26:09;;;;;;;0.00;0.00;;;;;;;;;;10255125;28;20042;-72
2021/08/26 15:31:12;;;;;;;0.00;0.00;;;;;;;;;;10258480;28;20057;-72
2021/08/26 15:36:16;;;;;;;0.00;0.00;;;;;;;;;;10228840;28;20058;-73
2021/08/26 15:41:20;;;;;;;0.00;0.00;;;;;;;;;;10221039;28;20490;-73
2021/08/26 15:46:24;;;;;;;0.00;0.00;;;;;;;;;;10239637;28;20043;-73
2021/08/26 15:51:30;;;;;;;0.00;0.00;;;;;;;;;;10250156;28;20050;-74
2021/08/26 15:56:37;;;;;;;0.20;0.00;;;;;;;;;;10233755;28;20050;-74
2021/08/26 16:01:40;;;;;;;0.00;0.00;;;;;;;;;;10223304;28;20062;-74
2021/08/26 16:06:44;;;;;;;0.00;0.00;;;;;;;;;;10242228;28;20155;-74
2021/08/26 16:11:47;;;;;;;0.00;0.00;;;;;;;;;;10236464;28;20073;-73
2021/08/26 16:16:50;;;;;;;0.00;0.00;;;;;;;;;;10252452;28;20150;-73
2021/08/26 16:21:55;;;;;;;0.00;0.00;;;;;;;;;;10267135;28;20054;-74
2021/08/26 16:26:58;;;;;;;0.00;0.00;;;;;;;;;;10300004;28;20750;-73
2021/08/26 16:32:01;;;;;;;0.00;0.00;;;;;;;;;;10296282;28;20065;-74
2021/08/26 16:37:05;;;;;;;0.00;0.00;;;;;;;;;;10294473;28;20046;-74
2021/08/26 16:42:08;;;;;;;0.00;0.00;;;;;;;;;;10288008;28;20053;-74
2021/08/26 16:47:11;;;;;;;0.00;0.00;;;;;;;;;;10288094;28;20053;-74
2021/08/26 16:52:15;;;;;;;0.00;0.00;;;;;;;;;;10294445;28;20417;-74
2021/08/26 16:57:18;;;;;;;0.00;0.00;;;;;;;;;;10285792;28;20062;-74
2021/08/26 17:02:21;;;;;;;0.00;0.00;;;;;;;;;;10285703;28;20076;-74
2021/08/26 17:07:25;;;;;;;0.00;0.00;;;;;;;;;;10290762;28;20164;-74
2021/08/26 17:12:32;;;;;;;0.00;0.00;;;;;;;;;;10286175;28;20046;-74
2021/08/26 17:17:34;;;;;;;0.00;0.00;;;;;;;;;;10289633;28;20537;-74
2021/08/26 17:22:40;;;;;;;0.00;0.00;;;;;;;;;;10281283;28;20053;-74
2021/08/26 17:27:44;;;;;;;0.00;0.00;;;;;;;;;;10283374;28;20047;-74
2021/08/26 17:32:46;;;;;;;0.00;0.00;;;;;;;;;;10290666;28;21000;-74
2021/08/26 17:37:51;;;;;;;0.00;0.00;;;;;;;;;;10289686;28;20038;-74
2021/08/26 17:42:54;;;;;;;0.00;0.00;;;;;;;;;;10281639;28;20519;-74
2021/08/26 17:47:57;;;;;;;0.00;0.00;;;;;;;;;;10268945;28;20051;-73
2021/08/26 17:53:01;;;;;;;0.00;0.00;;;;;;;;;;10291897;28;20053;-73
2021/08/26 17:58:04;;;;;;;0.00;0.00;;;;;;;;;;10279357;28;20046;-73
2021/08/26 18:03:07;;;;;;;0.00;0.00;;;;;;;;;;10282216;28;20520;-73
2021/08/26 18:08:11;;;;;;;0.00;0.00;;;;;;;;;;10288631;28;21352;-73
2021/08/26 18:13:14;;;;;;;0.00;0.00;;;;;;;;;;10281003;28;20054;-73
2021/08/26 18:18:17;;;;;;;0.00;0.00;;;;;;;;;;10280989;28;20769;-74
2021/08/26 18:23:21;;;;;;;0.00;0.00;;;;;;;;;;10276652;28;20054;-74
2021/08/26 18:28:23;;;;;;;0.00;0.00;;;;;;;;;;10275887;28;20594;-74
2021/08/26 18:33:26;;;;;;;0.00;0.00;;;;;;;;;;10289708;28;20047;-74
2021/08/26 18:38:32;;;;;;;0.00;0.00;;;;;;;;;;10288836;28;20061;-74
2021/08/26 18:43:34;;;;;;;0.00;0.00;;;;;;;;;;10281916;28;20046;-74
2021/08/26 18:48:37;;;;;;;0.00;0.00;;;;;;;;;;10284061;28;20062;-74
2021/08/26 18:53:42;;;;;;;0.00;0.00;;;;;;;;;;10286057;28;20047;-74
2021/08/26 18:58:45;;;;;;;0.00;0.00;;;;;;;;;;10274451;28;20051;-74
2021/08/26 19:03:48;;;;;;;0.00;0.00;;;;;;;;;;10271513;28;20054;-74
2021/08/26 19:08:52;;;;;;;0.00;0.00;;;;;;;;;;10284266;28;20508;-74
2021/08/26 19:13:55;;;;;;;0.00;0.00;;;;;;;;;;10280607;28;20054;-74
2021/08/26 19:18:58;;;;;;;0.00;0.00;;;;;;;;;;10283214;28;20062;-74
2021/08/26 19:24:02;;;;;;;0.00;0.00;;;;;;;;;;10271024;28;20493;-74
2021/08/26 19:29:05;;;;;;;0.00;0.00;;;;;;;;;;10288239;28;20053;-74
2021/08/26 19:34:08;;;;;;;0.00;0.00;;;;;;;;;;10289315;28;20054;-74
2021/08/26 19:39:12;;;;;;;0.00;0.00;;;;;;;;;;10277958;28;20041;-74
2021/08/26 19:44:15;;;;;;;0.00;0.00;;;;;;;;;;10262313;28;20051;-74
2021/08/26 19:49:23;;;;;;;0.00;0.00;;;;;;;;;;10266804;28;20070;-74
2021/08/26 19:54:29;;;;;;;0.00;0.00;;;;;;;;;;10279088;28;20473;-74
2021/08/26 19:59:34;;;;;;;0.00;0.00;;;;;;;;;;10282971;28;20086;-74
2021/08/26 20:04:38;;;;;;;0.00;0.00;;;;;;;;;;10280767;28;20113;-74
2021/08/26 20:09:42;;;;;;;0.00;0.00;;;;;;;;;;10281490;28;20757;-73
2021/08/26 20:14:49;;;;;;;0.00;0.00;;;;;;;;;;10276068;28;20424;-74
2021/08/26 20:19:52;;;;;;;0.00;0.00;;;;;;;;;;10290180;28;20057;-74
2021/08/26 20:24:56;;;;;;;0.00;0.00;;;;;;;;;;10278756;28;20065;-74
2021/08/26 20:29:59;;;;;;;0.00;0.00;;;;;;;;;;10294135;28;20042;-74
2021/08/26 20:35:02;;;;;;;0.00;0.00;;;;;;;;;;10281651;28;20054;-74
2021/08/26 20:40:09;;;;;;;0.00;0.00;;;;;;;;;;10282712;28;20047;-74
2021/08/26 20:45:14;;;;;;;0.00;0.00;;;;;;;;;;10292812;28;20076;-73
2021/08/26 20:50:19;;;;;;;0.00;0.00;;;;;;;;;;10301882;28;20034;-73
2021/08/26 20:55:23;;;;;;;0.00;0.00;;;;;;;;;;10283700;28;20671;-74
2021/08/26 21:00:26;;;;;;;0.00;0.00;;;;;;;;;;10294095;28;20043;-74
2021/08/26 21:05:29;;;;;;;0.00;0.00;;;;;;;;;;10275800;28;20405;-74
2021/08/26 21:10:34;;;;;;;0.00;0.00;;;;;;;;;;10284897;28;20043;-74
2021/08/26 21:15:37;;;;;;;0.00;0.00;;;;;;;;;;10284925;28;20073;-74
2021/08/26 21:20:40;;;;;;;0.00;0.00;;;;;;;;;;10280054;28;20177;-74
2021/08/26 21:26:02;;;;;;;0.00;0.00;;;;;;;;;;10281176;28;20512;-74
2021/08/26 21:31:04;;;;;;;0.00;0.00;;;;;;;;;;10280698;28;20042;-75
2021/08/26 21:36:07;;;;;;;0.00;0.00;;;;;;;;;;10284305;28;20050;-74
2021/08/26 21:41:11;;;;;;;0.00;0.00;;;;;;;;;;10281645;28;20600;-74
2021/08/26 21:46:14;;;;;;;0.00;0.00;;;;;;;;;;10282558;28;20034;-74
2021/08/26 21:51:17;;;;;;;0.00;0.00;;;;;;;;;;10280351;28;20065;-74
2021/08/26 21:56:21;;;;;;;0.00;0.00;;;;;;;;;;10292153;28;20150;-74
2021/08/26 22:01:24;;;;;;;0.00;0.00;;;;;;;;;;10271861;28;20046;-74
2021/08/26 22:06:27;;;;;;;0.00;0.00;;;;;;;;;;10287960;28;20043;-74
2021/08/26 22:11:31;;;;;;;0.00;0.00;;;;;;;;;;10292188;28;20042;-74
2021/08/26 22:16:34;;;;;;;0.00;0.00;;;;;;;;;;10272482;28;20059;-74
2021/08/26 22:21:37;;;;;;;0.00;0.00;;;;;;;;;;10282417;28;20073;-74
2021/08/26 22:26:41;;;;;;;0.00;0.00;;;;;;;;;;10284156;28;20047;-74
2021/08/26 22:31:44;;;;;;;0.03;0.03;;;;;;;;;;10277414;28;20050;-74
2021/08/26 22:36:46;;;;;;;0.00;0.00;;;;;;;;;;10259264;28;20047;-74
2021/08/26 22:41:51;;;;;;;0.08;0.08;;;;;;;;;;10275933;28;20053;-74
2021/08/26 22:46:53;;;;;;;0.00;0.00;;;;;;;;;;10276833;28;20053;-74
2021/08/26 22:51:56;;;;;;;0.00;0.00;;;;;;;;;;10273262;28;20049;-74
2021/08/26 22:57:00;;;;;;;0.00;0.00;;;;;;;;;;10273366;28;20046;-74
2021/08/26 23:02:07;;;;;;;0.00;0.00;;;;;;;;;;10273922;28;20042;-74
2021/08/26 23:07:12;;;;;;;0.00;0.00;;;;;;;;;;10276904;28;20810;-74
2021/08/26 23:12:16;;;;;;;0.00;0.00;;;;;;;;;;10299002;28;20042;-74
2021/08/26 23:17:19;;;;;;;0.00;0.00;;;;;;;;;;10274204;28;20073;-75
2021/08/26 23:22:22;;;;;;;0.00;0.00;;;;;;;;;;10283363;28;20043;-74
2021/08/26 23:27:26;;;;;;;0.00;0.00;;;;;;;;;;10280111;28;20129;-74
2021/08/26 23:32:29;;;;;;;0.00;0.00;;;;;;;;;;10288692;28;20046;-74
2021/08/26 23:37:31;;;;;;;0.00;0.00;;;;;;;;;;10283329;28;20069;-74
2021/08/26 23:42:36;;;;;;;0.00;0.00;;;;;;;;;;10284568;28;20046;-73
2021/08/26 23:47:39;;;;;;;0.00;0.00;;;;;;;;;;10292657;28;20486;-74
2021/08/26 23:52:42;;;;;;;0.28;0.03;;;;;;;;;;10284066;28;20053;-74
2021/08/26 23:57:46;;;;;;;0.00;0.00;;;;;;;;;;10276617;28;20042;-74
